Time;durP1;ratioP1;P1;durP2;ratioP2;P2;SDS_P1;SDS_P2;PMS_P1;PMS_P2;Temp;Humidity;BMP_temperature;BMP_pressure;BME280_temperature;BME280_humidity;BME280_pressure;Samples;Min_cycle;Max_cycle;Signal;HPM_P1;HPM_P2
2021/04/11 00:01:58;;;;;;;48.68;32.08;;;;;;;5.03;73.76;101020.31;1704541;82;21222;-75
2021/04/11 00:04:43;;;;;;;49.43;31.60;;;;;;;5.01;73.85;101020.71;1710917;82;21143;-75
2021/04/11 00:07:28;;;;;;;49.77;31.20;;;;;;;5.02;73.89;101015.16;1706922;82;21587;-74
2021/04/11 00:10:21;;;;;;;52.43;32.60;;;;;;;5.03;73.99;101014.32;1716435;82;21255;-74
2021/04/11 00:13:12;;;;;;;52.48;32.35;;;;;;;5.05;73.99;101007.52;1694372;82;21242;-74
2021/04/11 00:15:57;;;;;;;59.42;34.40;;;;;;;5.07;74.02;101002.84;1719192;82;21599;-74
2021/04/11 00:18:41;;;;;;;54.70;33.48;;;;;;;5.10;74.04;100995.63;1705751;82;21219;-74
2021/04/11 00:21:27;;;;;;;51.85;33.35;;;;;;;5.09;74.07;100990.91;1718882;82;21219;-74
2021/04/11 00:24:12;;;;;;;49.80;34.43;;;;;;;5.11;74.12;100998.63;1710234;82;21541;-74
2021/04/11 00:26:56;;;;;;;49.48;33.60;;;;;;;5.12;74.15;100996.50;1700994;82;21254;-74
2021/04/11 00:29:43;;;;;;;49.53;33.02;;;;;;;5.12;74.13;100993.52;1713201;82;21219;-74
2021/04/11 00:32:28;;;;;;;51.10;34.65;;;;;;;5.12;74.19;100987.53;1705452;82;21259;-74
2021/04/11 00:35:14;;;;;;;56.60;33.63;;;;;;;5.11;74.23;100984.11;1702675;82;21219;-74
2021/04/11 00:38:00;;;;;;;48.87;33.73;;;;;;;5.13;74.21;100988.83;1711949;83;21227;-74
2021/04/11 00:40:45;;;;;;;55.55;34.75;;;;;;;5.14;74.31;100984.56;1701348;82;21675;-74
2021/04/11 00:43:31;;;;;;;59.23;35.70;;;;;;;5.16;74.34;100977.75;1698166;82;420895;-74
2021/04/11 00:46:45;;;;;;;57.65;36.55;;;;;;;5.18;74.31;100991.45;1708554;82;21223;-74
2021/04/11 00:49:46;;;;;;;52.10;34.05;;;;;;;5.16;74.33;100979.89;1695088;82;21203;-74
2021/04/11 00:52:30;;;;;;;55.38;34.80;;;;;;;5.14;74.28;100964.92;1721526;82;21203;-74
2021/04/11 00:55:19;;;;;;;58.78;36.25;;;;;;;5.11;74.29;100962.73;1699824;82;21250;-74
2021/04/11 00:58:04;;;;;;;53.87;34.80;;;;;;;5.07;74.31;100959.70;1694172;82;21223;-74
2021/04/11 01:00:50;;;;;;;54.98;34.03;;;;;;;5.04;74.38;100957.96;1719148;82;21190;-74
2021/04/11 01:03:39;;;;;;;55.03;35.25;;;;;;;5.02;74.42;100958.78;1703882;82;21536;-75
2021/04/11 01:06:31;;;;;;;55.48;34.88;;;;;;;4.99;74.41;100960.89;1713660;82;21684;-74
2021/04/11 01:09:28;;;;;;;56.08;35.52;;;;;;;4.97;74.46;100964.71;1716666;82;21679;-74
2021/04/11 01:12:20;;;;;;;61.05;37.58;;;;;;;4.96;74.53;100962.13;1712608;82;21215;-74
2021/04/11 01:15:12;;;;;;;56.73;35.33;;;;;;;4.97;74.52;100961.28;1669129;83;21238;-73
2021/04/11 01:17:57;;;;;;;58.28;36.75;;;;;;;4.98;74.58;100956.60;1708182;82;21194;-73
2021/04/11 01:20:43;;;;;;;55.17;35.63;;;;;;;4.99;74.62;100960.89;1720436;81;21604;-73
2021/04/11 01:23:52;;;;;;;60.75;37.95;;;;;;;5.03;74.65;100953.67;1708203;82;21743;-74
2021/04/11 01:26:38;;;;;;;55.78;36.03;;;;;;;5.02;74.66;100948.11;1705367;82;21572;-75
2021/04/11 01:29:23;;;;;;;59.33;36.55;;;;;;;5.04;74.69;100943.86;1706915;82;21450;-74
2021/04/11 01:32:11;;;;;;;56.43;35.73;;;;;;;5.07;74.70;100933.65;1708137;82;21249;-75
2021/04/11 01:34:57;;;;;;;52.85;35.28;;;;;;;5.06;74.75;100930.65;1695286;83;21234;-74
2021/04/11 01:37:41;;;;;;;;;;;;;;;5.09;74.80;100938.80;1674967;84;22070;-73
2021/04/11 01:40:58;;;;;;;60.78;36.40;;;;;;;5.12;75.00;100936.27;1678205;84;20299;-74
2021/04/11 01:43:43;;;;;;;59.13;36.55;;;;;;;5.14;74.87;100938.42;1668780;85;21550;-73
2021/04/11 01:46:30;;;;;;;59.03;37.93;;;;;;;5.17;74.92;100936.75;1664625;84;21234;-73
2021/04/11 01:49:17;;;;;;;54.15;35.63;;;;;;;5.19;74.93;100933.79;1653770;86;21012;-74
2021/04/11 01:52:10;;;;;;;56.42;35.88;;;;;;;5.22;74.95;100931.65;1668323;84;21426;-74
2021/04/11 01:54:55;;;;;;;56.92;36.05;;;;;;;5.24;74.98;100924.41;1676530;84;21220;-74
2021/04/11 01:57:41;;;;;;;60.00;38.60;;;;;;;5.29;75.04;100925.32;1674116;84;21222;-74
2021/04/11 02:00:43;;;;;;;59.63;38.60;;;;;;;5.36;75.06;100925.39;1701531;82;22163;-74
2021/04/11 02:03:28;;;;;;;56.83;36.80;;;;;;;5.40;75.07;100919.02;1714561;82;22293;-74
2021/04/11 02:06:15;;;;;;;61.05;37.80;;;;;;;5.46;75.08;100915.66;1701323;82;21224;-75
2021/04/11 02:09:08;;;;;;;60.08;36.28;;;;;;;5.49;75.09;100907.57;1717885;82;21215;-75
2021/04/11 02:11:54;;;;;;;55.38;36.30;;;;;;;5.51;75.08;100898.19;1702632;82;22477;-74
2021/04/11 02:14:42;;;;;;;60.78;37.40;;;;;;;5.57;75.12;100902.52;1714974;82;21501;-73
2021/04/11 02:17:27;;;;;;;61.33;38.35;;;;;;;5.60;75.13;100898.70;1724025;82;21242;-73
2021/04/11 02:20:13;;;;;;;55.40;36.80;;;;;;;5.64;75.14;100888.47;1713585;82;21562;-73
2021/04/11 02:22:59;;;;;;;53.33;35.78;;;;;;;5.66;75.12;100892.34;1697591;82;21233;-73
2021/04/11 02:25:48;;;;;;;56.45;36.90;;;;;;;5.69;75.12;100891.50;1710024;82;21254;-74
2021/04/11 02:28:33;;;;;;;48.87;34.38;;;;;;;5.69;75.15;100882.52;1702114;82;21242;-74
2021/04/11 02:31:19;;;;;;;58.15;37.13;;;;;;;5.70;75.15;100881.25;1703122;82;21228;-74
2021/04/11 02:34:28;;;;;;;53.38;35.73;;;;;;;5.71;75.16;100888.10;1724873;82;21163;-74
2021/04/11 02:37:24;;;;;;;57.60;34.85;;;;;;;5.73;75.13;100885.09;1614775;86;21266;-74
2021/04/11 02:40:13;;;;;;;55.05;36.60;;;;;;;5.71;75.16;100880.83;1673530;84;21196;-74
2021/04/11 02:43:00;;;;;;;51.92;34.08;;;;;;;5.71;75.16;100883.39;1671959;84;21198;-73
2021/04/11 02:45:46;;;;;;;50.67;33.88;;;;;;;5.69;75.18;100874.83;1664609;84;21519;-74
2021/04/11 02:48:31;;;;;;;;;;;;;;;5.66;75.17;100871.81;1683447;84;21534;-74
2021/04/11 02:51:16;;;;;;;54.33;34.00;;;;;;;5.67;75.39;100875.23;1654991;84;20293;-74
2021/04/11 02:54:04;;;;;;;62.23;36.85;;;;;;;5.68;75.29;100867.98;1672617;84;21192;-74
2021/04/11 02:56:49;;;;;;;55.85;36.23;;;;;;;5.67;75.27;100866.26;1646380;84;21228;-74
2021/04/11 02:59:35;;;;;;;51.40;35.15;;;;;;;5.66;75.24;100862.83;1661645;84;21242;-74
2021/04/11 03:02:21;;;;;;;61.30;36.97;;;;;;;5.66;75.28;100862.83;1647229;84;21581;-74
2021/04/11 03:05:08;;;;;;;;;;;;;;;5.65;75.33;100858.55;1681503;84;22401;-74
2021/04/11 03:07:59;;;;;;;;;;;;;;;5.65;75.42;100854.70;1677995;84;20292;-74
2021/04/11 03:10:58;;;;;;;52.33;32.58;;;;;;;5.64;75.48;100854.27;1657847;84;20296;-74
2021/04/11 03:13:43;;;;;;;53.08;35.15;;;;;;;5.63;75.38;100852.55;1668142;84;21767;-74
2021/04/11 03:16:32;;;;;;;52.65;33.80;;;;;;;5.62;75.38;100850.83;1649355;85;21187;-74
2021/04/11 03:19:25;;;;;;;55.25;34.95;;;;;;;5.62;75.41;100852.97;1664852;84;21205;-74
2021/04/11 03:22:10;;;;;;;53.92;34.03;;;;;;;5.63;75.41;100853.83;1672461;84;21210;-74
2021/04/11 03:24:55;;;;;;;52.65;34.03;;;;;;;5.63;75.41;100849.56;1664223;85;21157;-74
2021/04/11 03:28:00;;;;;;;52.50;35.08;;;;;;;5.63;75.43;100846.13;1665340;84;21142;-74
2021/04/11 03:31:08;;;;;;;57.10;34.88;;;;;;;5.63;75.38;100848.27;1661214;84;21137;-74
2021/04/11 03:33:58;;;;;;;56.15;35.30;;;;;;;5.60;75.37;100840.98;1671584;84;21010;-74
2021/04/11 03:36:43;;;;;;;49.88;33.13;;;;;;;5.57;75.39;100843.09;1705196;82;21478;-74
2021/04/11 03:39:32;;;;;;;58.25;37.00;;;;;;;5.57;75.43;100846.08;1713451;83;21144;-74
2021/04/11 03:42:20;;;;;;;51.90;33.13;;;;;;;5.56;75.44;100846.50;1705821;82;22196;-74
2021/04/11 03:45:07;;;;;;;60.73;35.63;;;;;;;5.54;75.42;100843.07;1701801;82;21211;-74
2021/04/11 03:48:11;;;;;;;53.05;34.38;;;;;;;5.53;75.44;100834.94;1715002;82;21148;-74
2021/04/11 03:51:01;;;;;;;58.13;36.42;;;;;;;5.53;75.48;100837.92;1720202;82;21220;-74
2021/04/11 03:53:51;;;;;;;53.58;34.67;;;;;;;5.51;75.49;100835.77;1713024;80;21218;-74
2021/04/11 03:56:41;;;;;;;49.08;32.38;;;;;;;5.49;75.43;100834.48;1716859;81;21200;-74
2021/04/11 03:59:28;;;;;;;55.03;35.38;;;;;;;5.46;75.48;100833.17;1721055;82;21227;-74
2021/04/11 04:02:16;;;;;;;53.35;34.18;;;;;;;5.45;75.52;100836.58;1708714;82;21521;-74
2021/04/11 04:05:06;;;;;;;52.85;32.80;;;;;;;5.46;75.56;100830.61;1707034;83;21192;-74
2021/04/11 04:07:56;;;;;;;55.10;33.80;;;;;;;5.47;75.58;100827.20;1716887;82;21153;-74
2021/04/11 04:11:01;;;;;;;52.43;34.90;;;;;;;5.48;75.59;100822.92;1690301;82;21231;-74
2021/04/11 04:14:25;;;;;;;54.85;34.88;;;;;;;5.49;75.58;100827.20;1707804;82;21216;-74
2021/04/11 04:17:39;;;;;;;51.73;33.85;;;;;;;5.51;75.63;100828.94;1710744;82;21203;-74
2021/04/11 04:20:51;;;;;;;52.58;33.10;;;;;;;5.54;75.61;100828.97;1714656;82;21243;-74
2021/04/11 04:24:14;;;;;;;54.85;34.03;;;;;;;5.56;75.64;100823.42;1691776;82;33109;-73
2021/04/11 04:27:30;;;;;;;49.90;33.18;;;;;;;5.60;75.63;100818.75;1697573;82;21808;-74
2021/04/11 04:30:27;;;;;;;;;;;;;;;5.65;75.67;100809.38;1722031;82;21206;-74
2021/04/11 04:33:42;;;;;;;;;;;;;;;5.70;75.74;100796.59;1709978;82;20661;-74
2021/04/11 04:36:36;;;;;;;;;;;;;;;5.75;75.78;100802.58;1697237;82;20201;-74
2021/04/11 04:39:36;;;;;;;;;;;;;;;5.81;75.76;100798.77;1689765;82;20304;-74
2021/04/11 04:42:40;;;;;;;;;;;;;;;5.85;75.69;100795.38;1699928;82;20310;-74
2021/04/11 04:45:37;;;;;;;;;;;;;;;5.90;75.75;100791.16;1691120;82;20326;-74
2021/04/11 04:48:30;;;;;;;;;;;;;;;5.97;75.76;100789.06;1696083;82;20298;-74
2021/04/11 04:51:27;;;;;;;;;;;;;;;6.06;75.77;100785.69;1687913;82;21033;-74
2021/04/11 04:54:33;;;;;;;;;;;;;;;6.14;75.72;100783.16;1706518;82;20286;-74
2021/04/11 04:57:30;;;;;;;;;;;;;;;6.19;75.71;100782.34;1691469;82;20304;-74
2021/04/11 05:00:23;;;;;;;;;;;;;;;6.26;75.68;100778.91;1696204;82;20296;-74
2021/04/11 05:03:23;;;;;;;;;;;;;;;6.33;75.71;100777.23;1707790;82;21208;-74
2021/04/11 05:06:14;;;;;;;;;;;;;;;6.38;75.68;100774.67;1708122;82;20627;-74
2021/04/11 05:09:14;;;;;;;;;;;;;;;6.44;75.70;100774.70;1689969;82;20300;-74
2021/04/11 05:12:11;;;;;;;;;;;;;;;6.48;75.69;100779.85;1700833;83;20302;-74
2021/04/11 05:15:01;;;;;;;;;;;;;;;6.52;75.67;100771.73;1704718;82;20406;-74
2021/04/11 05:17:55;;;;;;;;;;;;;;;6.56;75.62;100768.31;1705502;82;20294;-74
2021/04/11 05:20:43;;;;;;;;;;;;;;;6.58;75.56;100771.75;1705249;83;20282;-74
2021/04/11 05:23:39;;;;;;;;;;;;;;;6.59;75.61;100765.33;1647157;87;20324;-74
2021/04/11 05:26:33;;;;;;;;;;;;;;;6.61;75.62;100763.63;1620899;87;20569;-74
2021/04/11 05:29:27;;;;;;;;;;;;;;;6.67;75.62;100764.49;1628153;87;20321;-74
2021/04/11 05:32:13;;;;;;;;;;;;;;;6.70;75.66;100764.08;1614071;87;21263;-74
2021/04/11 05:34:59;;;;;;;;;;;;;;;6.77;75.73;100763.63;1631554;87;20293;-74
2021/04/11 05:37:53;;;;;;;;;;;;;;;6.83;75.72;100756.79;1624827;87;20331;-75
2021/04/11 05:40:41;;;;;;;;;;;;;;;6.92;75.68;100759.37;1639236;86;20343;-74
2021/04/11 05:43:38;;;;;;;;;;;;;;;6.99;75.60;100762.81;1645797;86;20302;-74
2021/04/11 05:46:35;;;;;;;;;;;;;;;7.05;75.60;100758.95;1645033;86;20358;-74
2021/04/11 05:49:26;;;;;;;;;;;;;;;7.12;75.57;100759.82;1637512;86;21090;-74
2021/04/11 05:52:14;;;;;;;;;;;;;;;7.19;75.60;100759.83;1643494;87;20575;-74
2021/04/11 05:55:00;;;;;;;;;;;;;;;7.28;75.55;100767.94;1645707;87;20422;-74
2021/04/11 05:57:47;;;;;;;;;;;;;;;7.37;75.55;100760.22;1588561;88;20327;-74
2021/04/11 06:00:35;;;;;;;;;;;;;;;7.48;75.50;100770.50;1609858;88;20483;-74
2021/04/11 06:03:22;;;;;;;;;;;;;;;7.61;75.56;100758.05;1614275;86;20284;-75
2021/04/11 06:06:23;;;;;;;;;;;;;;;7.76;75.53;100762.31;1613859;88;20602;-75
2021/04/11 06:09:20;;;;;;;;;;;;;;;7.94;75.46;100759.23;1645036;87;20422;-75
2021/04/11 06:12:32;;;;;;;;;;;;;;;8.15;75.35;100754.45;1639712;87;20286;-75
2021/04/11 06:15:28;;;;;;;;;;;;;;;8.36;75.40;100759.09;1641700;86;20335;-75
2021/04/11 06:18:13;;;;;;;;;;;;;;;8.61;75.44;100761.97;1637483;87;20286;-76
2021/04/11 06:21:02;;;;;;;;;;;;;;;8.91;75.43;100763.48;1602535;88;20360;-80
2021/04/11 06:23:53;;;;;;;;;;;;;;;9.19;75.19;100759.83;1603375;87;20560;-76
2021/04/11 06:26:43;;;;;;;;;;;;;;;9.61;75.44;100750.83;1633033;87;20308;-77
2021/04/11 06:29:33;;;;;;;;;;;;;;;10.10;75.16;100750.27;1633821;86;20290;-77
2021/04/11 06:32:18;;;;;;;;;;;;;;;10.45;74.80;100743.38;1618806;86;20291;-76
2021/04/11 06:35:06;;;;;;;;;;;;;;;10.48;74.30;100743.77;1639104;86;20488;-76
2021/04/11 06:37:54;;;;;;;;;;;;;;;10.41;74.24;100744.28;1636929;86;20630;-76
2021/04/11 06:41:02;;;;;;;;;;;;;;;10.31;74.05;100741.87;1636584;87;20341;-76
2021/04/11 06:44:02;;;;;;;;;;;;;;;10.11;74.02;100739.50;1608519;89;20596;-76
2021/04/11 06:47:03;;;;;;;;;;;;;;;10.01;74.23;100737.45;1634033;87;20331;-77
2021/04/11 06:50:12;;;;;;;;;;;;;;;9.96;74.38;100732.34;1634269;86;20294;-76
2021/04/11 06:53:19;;;;;;;;;;;;;;;10.12;74.61;100730.88;1609085;87;20322;-77
2021/04/11 06:56:22;;;;;;;;;;;;;;;10.36;74.60;100729.30;1639032;86;20610;-76
2021/04/11 06:59:29;;;;;;;;;;;;;;;10.58;74.54;100727.25;1635248;87;20299;-76
2021/04/11 07:02:52;;;;;;;;;;;;;;;10.80;74.40;100728.66;1632449;87;20680;-74
2021/04/11 07:05:50;;;;;;;;;;;;;;;10.99;74.36;100723.16;1610301;87;20340;-75
2021/04/11 07:09:10;;;;;;;;;;;;;;;11.19;74.18;100725.85;1631159;86;20350;-76
2021/04/11 07:12:18;;;;;;;;;;;;;;;11.39;74.21;100717.74;1637141;87;20327;-75
2021/04/11 07:15:09;;;;;;;;;;;;;;;11.76;74.11;100719.63;1635843;87;20787;-75
2021/04/11 07:18:19;;;;;;;;;;;;;;;12.03;73.90;100716.95;1636631;87;20288;-74
2021/04/11 07:21:16;;;;;;;;;;;;;;;12.17;73.65;100713.62;1628074;87;20587;-75
2021/04/11 07:24:27;;;;;;;;;;;;;;;12.21;73.57;100704.91;1620101;86;21025;-75
2021/04/11 07:27:37;;;;;;;;;;;;;;;12.23;73.45;100707.02;1623957;87;20299;-75
2021/04/11 07:30:48;;;;;;;;;;;;;;;12.28;73.44;100702.59;1630569;87;20212;-75
2021/04/11 07:33:55;;;;;;;;;;;;;;;12.40;73.48;100693.70;1616033;87;20997;-74
2021/04/11 07:37:02;;;;;;;;;;;;;;;12.49;73.38;100692.16;1630496;87;20361;-75
2021/04/11 07:40:00;;;;;;;;;;;;;;;12.53;73.12;100692.06;1601248;87;20322;-76
2021/04/11 07:43:06;;;;;;;;;;;;;;;12.66;73.09;100688.74;1622315;87;20328;-76
2021/04/11 07:45:54;;;;;;;;;;;;;;;12.72;73.13;100688.59;1580650;86;20291;-75
2021/04/11 07:49:06;;;;;;;;;;;;;;;12.96;73.09;100690.20;1623231;86;20335;-75
2021/04/11 07:52:00;;;;;;;;;;;;;;;13.19;73.17;100688.74;1631757;87;20328;-75
2021/04/11 07:55:00;;;;;;;;;;;;;;;13.38;72.77;100683.08;1621003;87;20291;-76
2021/04/11 07:58:05;;;;;;;;;;;;;;;13.50;72.71;100682.75;1627888;87;20311;-75
2021/04/11 08:01:08;;;;;;;;;;;;;;;13.61;72.47;100678.53;1601275;87;20312;-75
2021/04/11 08:03:56;;;;;;;;;;;;;;;13.79;72.65;100674.98;1633420;87;20299;-75
2021/04/11 08:07:00;;;;;;;;;;;;;;;13.92;72.33;100674.19;1627545;87;20604;-76
2021/04/11 08:09:48;;;;;;;;;;;;;;;14.07;72.42;100674.16;1624176;87;20295;-76
2021/04/11 08:13:04;;;;;;;;;;;;;;;14.33;72.45;100666.88;1622866;86;20301;-76
2021/04/11 08:16:16;;;;;;;;;;;;;;;14.58;72.20;100669.13;1603479;87;21277;-76
2021/04/11 08:19:04;;;;;;;;;;;;;;;14.94;72.31;100670.16;1626383;86;20297;-76
2021/04/11 08:21:55;;;;;;;;;;;;;;;15.39;72.06;100672.94;1629809;87;20673;-76
2021/04/11 08:24:57;;;;;;;;;;;;;;;15.66;71.90;100665.45;1628298;87;20286;-76
2021/04/11 08:28:20;;;;;;;;;;;;;;;15.74;71.55;100663.41;1634826;87;20288;-76
2021/04/11 08:31:24;;;;;;;;;;;;;;;15.74;71.40;100669.94;1630943;87;20225;-76
2021/04/11 08:34:18;;;;;;;;;;;;;;;15.62;71.37;100667.77;1635109;87;20184;-76
2021/04/11 08:37:09;;;;;;;;;;;;;;;15.41;71.17;100658.09;1632070;86;20294;-76
2021/04/11 08:40:09;;;;;;;;;;;;;;;15.27;71.23;100665.54;1633856;87;20288;-75
2021/04/11 08:43:13;;;;;;;;;;;;;;;15.24;71.32;100661.28;1632461;87;20311;-74
2021/04/11 08:46:07;;;;;;;;;;;;;;;15.47;71.04;100659.19;1630807;87;20276;-75
2021/04/11 08:48:57;;;;;;;;;;;;;;;15.73;71.03;100651.73;1634301;86;20231;-78
2021/04/11 08:51:57;;;;;;;;;;;;;;;15.94;70.89;100658.77;1627634;86;20283;-78
2021/04/11 08:54:50;;;;;;;;;;;;;;;16.12;71.02;100652.83;1630271;87;20279;-78
2021/04/11 08:57:45;;;;;;;;;;;;;;;16.31;70.95;100654.28;1629791;87;20223;-79
2021/04/11 09:00:32;;;;;;;;;;;;;;;16.70;70.78;100655.77;1632290;86;20288;-78
2021/04/11 09:03:39;;;;;;;;;;;;;;;16.85;70.56;100647.77;1626500;87;20276;-78
2021/04/11 09:06:42;;;;;;;;;;;;;;;17.00;70.68;100641.91;1592026;89;20324;-78
2021/04/11 09:09:46;;;;;;;;;;;;;;;16.89;70.39;100634.98;1619194;87;20676;-78
2021/04/11 09:12:47;;;;;;;;;;;;;;;16.62;69.94;100634.34;1633313;87;20303;-77
2021/04/11 09:15:47;;;;;;;;;;;;;;;16.41;69.90;100633.89;1627892;87;20392;-78
2021/04/11 09:18:55;;;;;;;;;;;;;;;16.27;69.85;100638.80;1616278;87;20310;-78
2021/04/11 09:21:49;;;;;;;;;;;;;;;16.28;69.88;100640.05;1610674;86;497292;-78
2021/04/11 09:24:43;;;;;;;;;;;;;;;16.31;69.61;100629.49;1630789;86;20320;-78
2021/04/11 09:28:05;;;;;;;;;;;;;;;16.38;69.30;100639.23;1627887;86;20320;-78
2021/04/11 09:31:17;;;;;;;;;;;;;;;16.42;68.93;100626.45;1630558;87;20350;-77
2021/04/11 09:34:32;;;;;;;;;;;;;;;16.40;69.02;100618.69;1632019;87;20697;-78
2021/04/11 09:37:35;;;;;;;;;;;;;;;16.38;68.46;100620.97;1611109;86;21032;-79
2021/04/11 09:40:30;;;;;;;;;;;;;;;16.36;68.28;100615.80;1630290;87;20324;-78
2021/04/11 09:43:46;;;;;;;;;;;;;;;16.41;68.15;100609.95;1631892;87;20315;-78
2021/04/11 09:46:40;;;;;;;;;;;;;;;16.41;68.06;100606.48;1632146;86;20315;-78
2021/04/11 09:49:46;;;;;;;;;;;;;;;16.43;67.72;100587.70;1628456;86;20307;-78
2021/04/11 09:52:54;;;;;;;;;;;;;;;16.44;67.71;100589.41;1624242;87;20321;-78
2021/04/11 09:56:03;;;;;;;;;;;;;;;16.50;67.33;100582.17;1625893;86;20342;-78
2021/04/11 09:59:07;;;;;;;;;;;;;;;16.53;67.14;100578.59;1602588;87;20336;-78
2021/04/11 10:02:07;;;;;;;;;;;;;;;16.52;67.06;100585.57;1631326;86;20315;-78
2021/04/11 10:05:17;;;;;;;;;;;;;;;16.57;66.84;100578.86;1627049;87;20650;-78
2021/04/11 10:08:22;;;;;;;;;;;;;;;16.66;66.78;100573.71;1601869;88;20341;-78
2021/04/11 10:11:33;;;;;;;;;;;;;;;16.74;66.26;100576.85;1618184;87;20665;-79
2021/04/11 10:14:40;;;;;;;;;;;;;;;16.87;66.11;100568.89;1630730;86;20725;-78
2021/04/11 10:17:43;;;;;;;;;;;;;;;16.92;66.21;100565.63;1627322;86;20527;-79
2021/04/11 10:20:34;;;;;;;;;;;;;;;16.99;65.75;100563.61;1632353;86;20342;-78
2021/04/11 10:23:40;;;;;;;;;;;;;;;17.01;65.60;100561.77;1625975;86;20339;-78
2021/04/11 10:26:44;;;;;;;;;;;;;;;17.05;65.73;100555.05;1633546;87;20323;-78
2021/04/11 10:29:30;;;;;;;;;;;;;;;17.09;65.26;100552.69;1612776;88;20327;-77
2021/04/11 10:32:24;;;;;;;;;;;;;;;17.14;64.96;100555.10;1605663;87;20307;-79
2021/04/11 10:35:29;;;;;;;;;;;;;;;17.16;64.64;100550.17;1608571;88;20336;-78
2021/04/11 10:38:39;;;;;;;;;;;;;;;17.16;64.89;100558.01;1606568;87;21086;-78
2021/04/11 10:41:42;;;;;;;;;;;;;;;17.21;64.68;100553.89;1641938;86;20347;-78
2021/04/11 10:44:45;;;;;;;;;;;;;;;17.27;64.61;100552.77;1645099;86;20724;-78
2021/04/11 10:47:59;;;;;;;;;;;;;;;17.36;64.00;100557.59;1638158;87;20203;-78
2021/04/11 10:50:51;;;;;;;;;;;;;;;17.37;63.84;100551.44;1643053;87;20310;-78
2021/04/11 10:54:09;;;;;;;;;;;;;;;17.39;63.62;100553.53;1644941;87;20298;-78
2021/04/11 10:57:30;;;;;;;;;;;;;;;17.40;63.60;100550.00;1565473;90;20329;-78
2021/04/11 11:00:34;;;;;;;;;;;;;;;17.42;63.23;100548.16;1640847;86;20328;-78
2021/04/11 11:03:34;;;;;;;;;;;;;;;17.47;62.98;100540.50;1638158;85;20305;-76
2021/04/11 11:06:49;;;;;;;;;;;;;;;17.51;63.22;100546.44;1640000;85;20306;-76
2021/04/11 11:09:27;;;;;;;;;;;;;;;17.56;62.75;100535.31;1640535;85;20304;-76
2021/04/11 11:12:15;;;;;;;;;;;;;;;17.64;62.90;100529.73;1641670;85;20290;-76
2021/04/11 11:14:51;;;;;;;;;;;;;;;17.72;62.39;100530.22;1638972;85;20322;-76
2021/04/11 11:17:30;;;;;;;;;;;;;;;17.77;62.43;100517.78;1633298;86;20263;-77
2021/04/11 11:20:24;;;;;;;;;;;;;;;17.82;61.98;100515.80;1633128;87;20168;-76
2021/04/11 11:23:27;;;;;;;;;;;;;;;17.84;61.86;100510.03;1612812;87;20496;-77
2021/04/11 11:26:32;;;;;;;;;;;;;;;17.88;61.52;100510.27;1634006;87;20278;-76
2021/04/11 11:29:54;;;;;;;;;;;;;;;17.95;61.69;100502.52;1628407;87;20283;-77
2021/04/11 11:32:54;;;;;;;;;;;;;;;18.05;61.20;100503.77;1629961;87;20300;-77
2021/04/11 11:36:04;;;;;;;;;;;;;;;18.13;61.14;100492.93;1632392;87;20296;-77
2021/04/11 11:38:55;;;;;;;;;;;;;;;18.14;60.74;100488.08;1631876;86;20263;-77
2021/04/11 11:41:55;;;;;;;;;;;;;;;18.09;60.62;100490.08;1603377;87;20558;-77
2021/04/11 11:44:43;;;;;;;;;;;;;;;18.16;60.40;100484.93;1632655;86;20339;-77
2021/04/11 11:47:48;;;;;;;;;;;;;;;18.23;60.31;100486.75;1624879;87;20297;-77
2021/04/11 11:50:35;;;;;;;;;;;;;;;18.24;60.14;100487.14;1620497;86;20318;-77
2021/04/11 11:53:26;;;;;;;;;;;;;;;18.29;60.11;100487.30;1633267;87;20288;-77
2021/04/11 11:56:17;;;;;;;;;;;;;;;18.30;59.70;100481.59;1626989;86;20556;-77
2021/04/11 11:59:12;;;;;;;;;;;;;;;18.31;59.18;100474.98;1632234;87;20319;-76
2021/04/11 12:02:10;;;;;;;;;;;;;;;18.26;59.16;100483.52;1626169;87;20970;-77
2021/04/11 12:05:07;;;;;;;;;;;;;;;18.23;59.19;100479.75;1630365;87;20568;-77
2021/04/11 12:08:11;;;;;;;;;;;;;;;18.28;58.91;100463.81;1626538;87;20287;-77
2021/04/11 12:11:08;;;;;;;;;;;;;;;18.34;58.68;100471.36;1618944;87;20309;-76
2021/04/11 12:14:16;;;;;;;;;;;;;;;18.38;58.51;100461.12;1632066;87;20312;-77
2021/04/11 12:17:05;;;;;;;;;;;;;;;18.40;58.01;100467.13;1622509;87;20658;-77
2021/04/11 12:20:01;;;;;;;;;;;;;;;18.41;58.37;100468.81;1626891;86;147449;-77
2021/04/11 12:22:52;;;;;;;;;;;;;;;18.41;57.93;100463.58;1622970;87;20299;-76
2021/04/11 12:25:37;;;;;;;;;;;;;;;18.41;57.92;100467.05;1624566;87;20308;-77
2021/04/11 12:28:25;;;;;;;;;;;;;;;18.43;57.54;100469.12;1633997;87;20786;-77
2021/04/11 12:31:21;;;;;;;;;;;;;;;18.44;57.61;100464.27;1618374;87;20527;-77
2021/04/11 12:34:22;;;;;;;;;;;;;;;18.47;57.52;100460.19;1625291;87;20567;-77
2021/04/11 12:37:31;;;;;;;;;;;;;;;18.51;57.23;100458.27;1633238;86;20424;-77
2021/04/11 12:40:29;;;;;;;;;;;;;;;18.53;56.97;100454.64;1624576;87;20300;-77
2021/04/11 12:43:27;;;;;;;;;;;;;;;18.59;57.05;100451.33;1628698;86;20302;-77
2021/04/11 12:46:40;;;;;;;;;;;;;;;18.59;56.93;100449.55;1635216;86;20291;-77
2021/04/11 12:49:43;;;;;;;;;;;;;;;18.52;56.63;100450.79;1631526;86;20315;-76
2021/04/11 12:52:37;;;;;;;;;;;;;;;18.50;56.34;100450.02;1620721;86;20317;-76
2021/04/11 12:55:41;;;;;;;;;;;;;;;18.53;56.49;100436.31;1598915;88;20359;-77
2021/04/11 12:58:37;;;;;;;;;;;;;;;18.64;56.36;100451.50;1599941;89;20307;-77
2021/04/11 13:01:45;;;;;;;;;;;;;;;18.73;56.16;100444.45;1632940;87;20318;-77
2021/04/11 13:04:42;;;;;;;;;;;;;;;18.75;55.80;100443.91;1630858;86;20604;-76
2021/04/11 13:07:33;;;;;;;;;;;;;;;18.72;55.53;100453.69;1624718;86;20427;-77
2021/04/11 13:10:36;;;;;;;;;;;;;;;18.70;55.45;100445.95;1617378;87;20299;-76
2021/04/11 13:13:24;;;;;;;;;;;;;;;18.70;55.50;100453.80;1625801;87;20351;-77
2021/04/11 13:16:18;;;;;;;;;;;;;;;18.65;55.09;100455.81;1623323;86;20280;-77
2021/04/11 13:19:15;;;;;;;;;;;;;;;18.56;55.27;100454.10;1603735;87;20266;-77
2021/04/11 13:22:06;;;;;;;;;;;;;;;18.47;55.18;100448.41;1627002;86;20914;-76
2021/04/11 13:25:10;;;;;;;;;;;;;;;18.45;54.93;100449.41;1629642;86;20307;-75
2021/04/11 13:28:11;;;;;;;;;;;;;;;18.42;54.92;100456.95;1631443;87;20306;-75
2021/04/11 13:31:09;;;;;;;;;;;;;;;18.42;54.66;100449.11;1633456;87;20312;-75
2021/04/11 13:33:54;;;;;;;;;;;;;;;18.38;54.72;100448.03;1641985;87;20310;-76
2021/04/11 13:36:41;;;;;;;;;;;;;;;18.29;54.55;100451.95;1607942;87;20320;-76
2021/04/11 13:39:32;;;;;;;;;;;;;;;18.26;54.33;100444.72;1610404;88;20428;-78
2021/04/11 13:42:26;;;;;;;;;;;;;;;18.21;54.28;100452.80;1614068;88;20292;-78
2021/04/11 13:45:32;;;;;;;;;;;;;;;18.19;54.31;100446.83;1611720;88;20626;-78
2021/04/11 13:48:23;;;;;;;;;;;;;;;18.14;54.28;100452.75;1555402;91;20753;-78
2021/04/11 13:51:11;;;;;;;;;;;;;;;18.11;54.22;100451.13;1560567;90;20489;-78
2021/04/11 13:54:26;;;;;;;;;;;;;;;18.12;53.77;100461.14;1556782;91;20316;-77
2021/04/11 13:57:32;;;;;;;;;;;;;;;18.11;54.09;100451.59;1557703;90;20352;-78
2021/04/11 14:00:20;;;;;;;;;;;;;;;18.12;53.75;100441.05;1543516;91;20391;-78
2021/04/11 14:03:14;;;;;;;;;;;;;;;18.12;53.81;100441.52;1546800;91;20461;-78
2021/04/11 14:06:02;;;;;;;;;;;;;;;18.19;53.78;100434.59;1546883;91;20656;-78
2021/04/11 14:08:56;;;;;;;;;;;;;;;18.26;53.62;100435.56;1532381;92;20374;-79
2021/04/11 14:11:44;;;;;;;;;;;;;;;18.31;53.66;100434.41;1542730;92;20633;-78
2021/04/11 14:14:50;;;;;;;;;;;;;;;18.32;53.29;100434.78;1546538;91;20443;-78
2021/04/11 14:17:38;;;;;;;;;;;;;;;18.30;53.70;100435.33;1509124;92;20717;-78
2021/04/11 14:20:29;;;;;;;;;;;;;;;18.30;53.27;100431.40;1598660;89;20318;-79
2021/04/11 14:23:26;;;;;;;;;;;;;;;18.29;53.20;100431.48;1597106;89;20670;-78
2021/04/11 14:26:17;;;;;;;;;;;;;;;18.26;52.98;100429.86;1597735;88;20319;-78
2021/04/11 14:29:05;;;;;;;;;;;;;;;18.24;52.93;100429.09;1637261;87;21237;-79
2021/04/11 14:31:53;;;;;;;;;;;;;;;18.21;52.88;100433.17;1638288;87;20407;-79
2021/04/11 14:35:05;;;;;;;;;;;;;;;18.21;52.74;100433.17;1640154;87;20473;-79
2021/04/11 14:38:19;;;;;;;;;;;;;;;18.21;52.83;100429.25;1639251;86;20302;-79